createdAt,value
2018-12-25T00:00:28.592Z,103095.88
2018-12-25T00:03:02.062Z,103107.22
2018-12-25T00:05:33.945Z,103099.09
2018-12-25T00:08:05.121Z,103092.43
2018-12-25T00:10:35.734Z,103094.65
2018-12-25T00:13:08.846Z,103101.05
2018-12-25T00:15:40.754Z,103101.16
2018-12-25T00:18:13.561Z,103090.23
2018-12-25T00:20:44.844Z,103093.30
2018-12-25T00:23:15.651Z,103101.05
2018-12-25T00:25:46.571Z,103099.30
2018-12-25T00:28:17.836Z,103097.09
2018-12-25T00:30:49.028Z,103097.77
2018-12-25T00:33:19.792Z,103096.09
2018-12-25T00:35:52.664Z,103098.09
2018-12-25T00:38:26.080Z,103093.16
2018-12-25T00:40:56.913Z,103093.64
2018-12-25T00:43:27.816Z,103098.53
2018-12-25T00:45:59.280Z,103091.02
2018-12-25T00:48:30.690Z,103082.62
2018-12-25T00:51:03.086Z,103070.33
2018-12-25T00:53:36.887Z,103067.06
2018-12-25T00:56:10.243Z,103065.64
2018-12-25T00:58:42.158Z,103054.28
2018-12-25T01:01:12.775Z,103054.42
2018-12-25T01:03:45.361Z,103058.11
2018-12-25T01:06:17.560Z,103056.83
2018-12-25T01:08:49.495Z,103057.88
2018-12-25T01:11:21.078Z,103060.21
2018-12-25T01:13:51.436Z,103062.70
2018-12-25T01:16:29.109Z,103066.38
2018-12-25T01:19:04.557Z,103070.98
2018-12-25T01:21:38.728Z,103075.92
2018-12-25T01:24:10.387Z,103086.03
2018-12-25T01:26:41.636Z,103087.65
2018-12-25T01:29:12.678Z,103083.37
2018-12-25T01:31:43.104Z,103079.72
2018-12-25T01:34:13.756Z,103082.53
2018-12-25T01:36:46.483Z,103082.20
2018-12-25T01:39:20.843Z,103088.97
2018-12-25T01:41:51.886Z,103094.23
2018-12-25T01:44:22.382Z,103090.02
2018-12-25T01:46:52.826Z,103088.42
2018-12-25T01:49:31.549Z,103095.98
2018-12-25T01:51:56.467Z,103095.19
2018-12-25T01:54:30.885Z,103110.41
2018-12-25T01:57:05.471Z,103112.19
2018-12-25T01:59:36.645Z,103115.05
2018-12-25T02:02:08.751Z,103115.16
2018-12-25T02:04:43.187Z,103118.57
2018-12-25T02:07:17.029Z,103114.23
2018-12-25T02:09:50.749Z,103114.48
2018-12-25T02:12:22.798Z,103116.77
2018-12-25T02:14:53.268Z,103108.95
2018-12-25T02:17:24.471Z,103114.61
2018-12-25T02:19:55.227Z,103107.75
2018-12-25T02:22:25.862Z,103112.35
2018-12-25T02:24:58.381Z,103112.38
2018-12-25T02:27:29.684Z,103115.44
2018-12-25T02:30:00.365Z,103125.44
2018-12-25T02:32:35.173Z,103112.19
2018-12-25T02:35:08.035Z,103114.77
2018-12-25T02:37:43.098Z,103116.45
2018-12-25T02:40:22.466Z,103118.90
2018-12-25T02:43:06.154Z,103119.05
2018-12-25T02:45:36.736Z,103117.41
2018-12-25T02:48:08.015Z,103112.53
2018-12-25T02:50:38.339Z,103109.81
2018-12-25T02:53:09.072Z,103112.14
2018-12-25T02:55:40.628Z,103105.69
2018-12-25T02:58:13.103Z,103102.80
2018-12-25T03:00:46.540Z,103109.91
2018-12-25T03:03:19.689Z,103105.15
2018-12-25T03:05:51.303Z,103110.63
2018-12-25T03:08:24.452Z,103107.18
2018-12-25T03:10:54.774Z,103101.28
2018-12-25T03:13:28.680Z,103108.69
2018-12-25T03:15:59.659Z,103107.98
2018-12-25T03:18:31.149Z,103107.98
2018-12-25T03:21:01.456Z,103105.48
2018-12-25T03:23:32.270Z,103101.76
2018-12-25T03:26:02.868Z,103093.92
2018-12-25T03:28:35.554Z,103092.59
2018-12-25T03:31:07.520Z,103088.17
2018-12-25T03:33:38.765Z,103082.92
2018-12-25T03:36:10.195Z,103092.83
2018-12-25T03:38:41.193Z,103092.55
2018-12-25T03:41:11.481Z,103090.52
2018-12-25T03:43:46.740Z,103087.81
2018-12-25T03:46:18.174Z,103086.09
2018-12-25T03:48:49.566Z,103081.19
2018-12-25T03:51:22.269Z,103076.64
2018-12-25T03:53:52.959Z,103066.95
2018-12-25T03:56:23.886Z,103069.88
2018-12-25T03:58:56.466Z,103069.11
2018-12-25T04:01:27.089Z,103065.47
2018-12-25T04:04:01.022Z,103064.57
2018-12-25T04:06:32.768Z,103065.00
2018-12-25T04:09:04.723Z,103069.48
2018-12-25T04:11:35.915Z,103069.18
2018-12-25T04:14:08.036Z,103073.10
2018-12-25T04:16:39.548Z,103068.24
2018-12-25T04:19:10.927Z,103063.38
2018-12-25T04:21:41.710Z,103064.20
2018-12-25T04:24:12.490Z,103065.56
2018-12-25T04:26:42.781Z,103070.86
2018-12-25T04:29:14.764Z,103066.06
2018-12-25T04:31:46.184Z,103065.58
2018-12-25T04:34:16.505Z,103061.04
2018-12-25T04:36:46.963Z,103065.54
2018-12-25T04:39:18.691Z,103057.21
2018-12-25T04:41:49.004Z,103059.36
2018-12-25T04:44:20.656Z,103061.02
2018-12-25T04:46:52.962Z,103056.67
2018-12-25T04:49:24.126Z,103055.58
2018-12-25T04:51:56.480Z,103061.88
2018-12-25T04:54:29.129Z,103053.83
2018-12-25T04:57:01.605Z,103057.02
2018-12-25T04:59:35.253Z,103054.00
2018-12-25T05:02:05.923Z,103059.89
2018-12-25T05:04:36.306Z,103065.14
2018-12-25T05:07:10.697Z,103064.61
2018-12-25T05:09:41.122Z,103071.72
2018-12-25T05:12:13.602Z,103066.73
2018-12-25T05:14:46.793Z,103067.34
2018-12-25T05:17:17.120Z,103065.19
2018-12-25T05:19:48.778Z,103063.47
2018-12-25T05:22:20.026Z,103065.58
2018-12-25T05:24:50.961Z,103056.72
2018-12-25T05:27:22.896Z,103055.96
2018-12-25T05:29:55.727Z,103054.31
2018-12-25T05:32:26.566Z,103059.15
2018-12-25T05:34:58.261Z,103055.29
2018-12-25T05:37:29.073Z,103053.21
2018-12-25T05:40:00.605Z,103048.81
2018-12-25T05:42:31.559Z,103048.81
2018-12-25T05:45:02.731Z,103053.75
2018-12-25T05:47:38.253Z,103057.54
2018-12-25T05:50:10.731Z,103057.68
2018-12-25T05:52:43.105Z,103057.78
2018-12-25T05:55:13.842Z,103059.25
2018-12-25T05:57:48.162Z,103064.63
2018-12-25T06:00:19.717Z,103065.83
2018-12-25T06:02:51.887Z,103067.59
2018-12-25T06:05:22.724Z,103070.70
2018-12-25T06:07:55.631Z,103071.48
2018-12-25T06:10:27.350Z,103075.69
2018-12-25T06:13:12.751Z,103083.59
2018-12-25T06:15:46.651Z,103081.99
2018-12-25T06:18:17.623Z,103080.67
2018-12-25T06:20:55.063Z,103078.38
2018-12-25T06:23:23.242Z,103082.72
2018-12-25T06:25:55.132Z,103088.60
2018-12-25T06:28:26.560Z,103087.59
2018-12-25T06:30:59.168Z,103081.42
2018-12-25T06:33:29.736Z,103087.28
2018-12-25T06:36:00.916Z,103091.95
2018-12-25T06:38:31.984Z,103084.25
2018-12-25T06:41:02.720Z,103080.39
2018-12-25T06:43:33.944Z,103083.47
2018-12-25T06:46:05.319Z,103065.70
2018-12-25T06:48:36.669Z,103075.23
2018-12-25T06:51:08.958Z,103063.83
2018-12-25T06:53:39.855Z,103064.80
2018-12-25T06:56:11.261Z,103063.55
2018-12-25T06:58:42.510Z,103057.33
2018-12-25T07:01:14.256Z,103061.44
2018-12-25T07:03:45.666Z,103069.48
2018-12-25T07:06:16.005Z,103064.69
2018-12-25T07:08:48.015Z,103063.37
2018-12-25T07:11:19.829Z,103065.91
2018-12-25T07:13:51.630Z,103064.63
2018-12-25T07:16:23.862Z,103055.31
2018-12-25T07:18:55.152Z,103055.61
2018-12-25T07:21:25.845Z,103059.47
2018-12-25T07:23:59.142Z,103065.09
2018-12-25T07:26:29.551Z,103064.56
2018-12-25T07:29:00.512Z,103058.97
2018-12-25T07:31:31.451Z,103062.98
2018-12-25T07:34:02.082Z,103062.81
2018-12-25T07:36:33.025Z,103059.42
2018-12-25T07:39:04.497Z,103051.95
2018-12-25T07:41:37.794Z,103051.97
2018-12-25T07:44:09.041Z,103050.65
2018-12-25T07:46:41.314Z,103047.47
2018-12-25T07:49:13.686Z,103042.72
2018-12-25T07:51:48.479Z,103045.52
2018-12-25T07:54:20.442Z,103046.94
2018-12-25T07:56:55.010Z,103043.44
2018-12-25T07:59:28.409Z,103045.13
2018-12-25T08:02:00.432Z,103042.34
2018-12-25T08:04:32.605Z,103047.84
2018-12-25T08:07:06.205Z,103047.06
2018-12-25T08:09:37.599Z,103046.73
2018-12-25T08:12:09.144Z,103050.69
2018-12-25T08:14:39.816Z,103043.66
2018-12-25T08:17:12.864Z,103051.46
2018-12-25T08:19:47.295Z,103051.35
2018-12-25T08:22:19.322Z,103046.52
2018-12-25T08:24:50.974Z,103053.98
2018-12-25T08:27:26.459Z,103054.25
2018-12-25T08:29:59.963Z,103041.54
2018-12-25T08:32:31.753Z,103052.85
2018-12-25T08:35:05.573Z,103051.22
2018-12-25T08:37:48.791Z,103052.67
2018-12-25T08:40:23.830Z,103044.98
2018-12-25T08:42:57.379Z,103053.38
2018-12-25T08:45:27.792Z,103058.19
2018-12-25T08:47:59.262Z,103062.61
2018-12-25T08:50:32.078Z,103048.73
2018-12-25T08:53:04.316Z,103061.81
2018-12-25T08:55:38.719Z,103058.64
2018-12-25T08:58:12.092Z,103069.88
2018-12-25T09:00:42.954Z,103071.36
2018-12-25T09:03:32.713Z,103071.09
2018-12-25T09:06:15.652Z,103069.77
2018-12-25T09:08:49.017Z,103068.08
2018-12-25T09:11:24.784Z,103066.44
2018-12-25T09:13:57.310Z,103063.94
2018-12-25T09:16:27.611Z,103065.05
2018-12-25T09:18:59.042Z,103068.11
2018-12-25T09:21:30.211Z,103067.19
2018-12-25T09:24:04.292Z,103073.17
2018-12-25T09:26:34.594Z,103071.55
2018-12-25T09:29:04.995Z,103075.19
2018-12-25T09:31:36.385Z,103084.11
2018-12-25T09:34:12.852Z,103084.66
2018-12-25T09:36:43.327Z,103078.03
2018-12-25T09:39:15.081Z,103083.81
2018-12-25T09:41:46.954Z,103088.83
2018-12-25T09:44:17.853Z,103087.98
2018-12-25T09:46:48.134Z,103098.41
2018-12-25T09:49:18.443Z,103103.23
2018-12-25T09:51:54.533Z,103105.92
2018-12-25T09:54:24.271Z,103091.91
2018-12-25T09:56:54.697Z,103093.42
2018-12-25T09:59:26.975Z,103092.03
2018-12-25T10:01:57.401Z,103083.42
2018-12-25T10:04:28.919Z,103083.96
2018-12-25T10:06:59.976Z,103086.74
2018-12-25T10:09:31.059Z,103085.28
2018-12-25T10:12:02.539Z,103076.88
2018-12-25T10:14:34.311Z,103082.03
2018-12-25T10:17:05.084Z,103080.29
2018-12-25T10:19:39.741Z,103075.08
2018-12-25T10:22:15.840Z,103071.89
2018-12-25T10:24:46.572Z,103070.70
2018-12-25T10:27:17.334Z,103070.85
2018-12-25T10:29:48.048Z,103072.78
2018-12-25T10:32:19.512Z,103067.83
2018-12-25T10:34:51.850Z,103061.31
2018-12-25T10:37:22.271Z,103064.58
2018-12-25T10:39:53.052Z,103071.52
2018-12-25T10:42:23.424Z,103061.38
2018-12-25T10:44:54.053Z,103058.80
2018-12-25T10:47:26.651Z,103051.33
2018-12-25T10:50:00.296Z,103058.98
2018-12-25T10:52:30.626Z,103066.97
2018-12-25T10:55:02.657Z,103059.45
2018-12-25T10:57:34.124Z,103057.69
2018-12-25T11:00:06.399Z,103066.52
2018-12-25T11:02:36.844Z,103063.86
2018-12-25T11:05:09.290Z,103072.75
2018-12-25T11:07:39.611Z,103075.59
2018-12-25T11:10:10.140Z,103076.97
2018-12-25T11:12:44.519Z,103073.01
2018-12-25T11:15:16.337Z,103073.02
2018-12-25T11:17:47.095Z,103068.13
2018-12-25T11:20:19.140Z,103062.36
2018-12-25T11:22:53.855Z,103062.80
2018-12-25T11:25:28.088Z,103065.80
2018-12-25T11:27:59.444Z,103066.34
2018-12-25T11:30:32.321Z,103069.88
2018-12-25T11:33:04.163Z,103062.75
2018-12-25T11:35:35.756Z,103059.16
2018-12-25T11:38:08.291Z,103051.50
2018-12-25T11:40:42.297Z,103056.48
2018-12-25T11:43:17.353Z,103053.83
2018-12-25T11:45:48.011Z,103054.31
2018-12-25T11:48:19.994Z,103052.95
2018-12-25T11:50:51.031Z,103048.05
2018-12-25T11:53:21.727Z,103042.72
2018-12-25T11:55:54.731Z,103042.17
2018-12-25T11:58:30.526Z,103035.92
2018-12-25T12:01:01.166Z,103031.84
2018-12-25T12:03:37.136Z,103035.59
2018-12-25T12:06:17.278Z,103028.45
2018-12-25T12:08:49.591Z,103029.50
2018-12-25T12:11:20.138Z,103031.05
2018-12-25T12:13:52.310Z,103027.14
2018-12-25T12:16:25.897Z,103030.37
2018-12-25T12:18:59.775Z,103019.84
2018-12-25T12:21:33.220Z,103022.53
2018-12-25T12:24:12.079Z,103029.27
2018-12-25T12:26:49.237Z,103028.84
2018-12-25T12:29:22.713Z,103025.01
2018-12-25T12:31:55.826Z,103023.48
2018-12-25T12:34:26.947Z,103034.09
2018-12-25T12:37:00.492Z,103037.62
2018-12-25T12:39:35.739Z,103035.87
2018-12-25T12:42:08.188Z,103030.44
2018-12-25T12:44:40.817Z,103037.61
2018-12-25T12:47:16.082Z,103035.94
2018-12-25T12:49:46.822Z,103039.47
2018-12-25T12:52:18.405Z,103039.14
2018-12-25T12:54:50.892Z,103040.07
2018-12-25T12:57:22.344Z,103040.97
2018-12-25T12:59:58.525Z,103036.06
2018-12-25T13:02:36.720Z,103033.29
2018-12-25T13:05:08.777Z,103026.63
2018-12-25T13:07:39.194Z,103030.08
2018-12-25T13:10:09.933Z,103035.58
2018-12-25T13:12:40.286Z,103038.84
2018-12-25T13:15:11.764Z,103035.48
2018-12-25T13:17:45.415Z,103034.92
2018-12-25T13:20:16.338Z,103035.19
2018-12-25T13:22:53.876Z,103040.51
2018-12-25T13:25:20.510Z,103036.46
2018-12-25T13:27:53.054Z,103036.83
2018-12-25T13:30:27.855Z,103034.41
2018-12-25T13:32:59.479Z,103038.20
2018-12-25T13:35:33.883Z,103041.43
2018-12-25T13:38:19.010Z,103036.83
2018-12-25T13:40:50.992Z,103044.48
2018-12-25T13:43:25.218Z,103046.72
2018-12-25T13:45:55.787Z,103039.84
2018-12-25T13:48:28.549Z,103038.61
2018-12-25T13:51:01.351Z,103027.93
2018-12-25T13:53:35.570Z,103034.10
2018-12-25T13:56:06.544Z,103033.67
2018-12-25T13:58:38.859Z,103036.25
2018-12-25T14:01:10.824Z,103035.70
2018-12-25T14:03:48.068Z,103036.11
2018-12-25T14:06:19.361Z,103034.11
2018-12-25T14:08:52.795Z,103027.41
2018-12-25T14:11:27.897Z,103029.26
2018-12-25T14:14:01.312Z,103032.67
2018-12-25T14:16:35.310Z,103031.96
2018-12-25T14:19:10.494Z,103026.11
2018-12-25T14:21:43.543Z,103024.73
2018-12-25T14:24:16.675Z,103028.16
2018-12-25T14:26:50.969Z,103033.63
2018-12-25T14:29:23.756Z,103036.11
2018-12-25T14:31:58.873Z,103026.17
2018-12-25T14:34:31.540Z,103027.39
2018-12-25T14:37:04.058Z,103028.66
2018-12-25T14:39:35.232Z,103032.78
2018-12-25T14:42:08.657Z,103035.17
2018-12-25T14:44:40.357Z,103030.78
2018-12-25T14:47:18.061Z,103035.55
2018-12-25T14:49:52.021Z,103037.74
2018-12-25T14:52:24.421Z,103034.17
2018-12-25T14:54:58.076Z,103033.00
2018-12-25T14:57:28.702Z,103028.86
2018-12-25T15:00:04.690Z,103042.41
2018-12-25T15:02:36.711Z,103034.98
2018-12-25T15:05:09.998Z,103036.94
2018-12-25T15:07:40.714Z,103024.70
2018-12-25T15:10:12.519Z,103032.83
2018-12-25T15:12:46.545Z,103034.87
2018-12-25T15:15:17.426Z,103026.89
2018-12-25T15:17:51.233Z,103025.38
2018-12-25T15:20:31.197Z,103032.06
2018-12-25T15:23:05.832Z,103030.34
2018-12-25T15:25:38.374Z,103027.00
2018-12-25T15:28:11.238Z,103021.35
2018-12-25T15:30:44.790Z,103031.31
2018-12-25T15:33:16.389Z,103022.13
2018-12-25T15:35:49.201Z,103026.75
2018-12-25T15:38:21.624Z,103033.34
2018-12-25T15:40:55.092Z,103029.06
2018-12-25T15:43:27.630Z,103034.86
2018-12-25T15:46:11.470Z,103028.86
2018-12-25T15:48:50.626Z,103023.50
2018-12-25T15:51:23.101Z,103035.59
2018-12-25T15:53:56.031Z,103036.27
2018-12-25T15:56:26.452Z,103024.83
2018-12-25T15:58:57.926Z,103034.37
2018-12-25T16:01:31.622Z,103031.08
2018-12-25T16:04:02.651Z,103033.42
2018-12-25T16:06:38.716Z,103036.97
2018-12-25T16:09:12.888Z,103035.78
2018-12-25T16:11:45.164Z,103030.68
2018-12-25T16:14:28.300Z,103034.59
2018-12-25T16:17:01.463Z,103030.53
2018-12-25T16:19:35.152Z,103025.72
2018-12-25T16:22:06.686Z,103032.77
2018-12-25T16:24:42.722Z,103030.13
2018-12-25T16:27:15.088Z,103035.98
2018-12-25T16:29:45.403Z,103024.16
2018-12-25T16:32:20.665Z,103024.46
2018-12-25T16:34:52.449Z,103026.18
2018-12-25T16:37:23.902Z,103028.40
2018-12-25T16:39:56.232Z,103024.33
2018-12-25T16:42:27.005Z,103027.81
2018-12-25T16:44:57.311Z,103028.39
2018-12-25T16:47:27.689Z,103039.08
2018-12-25T16:49:58.045Z,103034.78
2018-12-25T16:52:28.916Z,103042.22
2018-12-25T16:55:03.710Z,103043.58
2018-12-25T16:57:35.727Z,103047.22
2018-12-25T17:00:08.266Z,103039.88
2018-12-25T17:02:44.019Z,103036.95
2018-12-25T17:05:18.168Z,103051.16
2018-12-25T17:07:52.505Z,103048.66
2018-12-25T17:10:26.702Z,103050.02
2018-12-25T17:12:58.289Z,103052.10
2018-12-25T17:15:30.060Z,103047.34
2018-12-25T17:18:03.718Z,103041.84
2018-12-25T17:20:49.834Z,103038.59
2018-12-25T17:23:21.226Z,103042.99
2018-12-25T17:25:52.865Z,103035.58
2018-12-25T17:28:27.922Z,103045.34
2018-12-25T17:31:00.768Z,103044.11
2018-12-25T17:33:33.753Z,103041.73
2018-12-25T17:36:05.514Z,103044.17
2018-12-25T17:38:39.426Z,103049.09
2018-12-25T17:41:14.576Z,103046.84
2018-12-25T17:43:53.884Z,103051.89
2018-12-25T17:46:26.645Z,103047.69
2018-12-25T17:49:00.556Z,103048.30
2018-12-25T17:51:31.555Z,103050.14
2018-12-25T17:54:10.488Z,103053.80
2018-12-25T17:56:37.873Z,103047.69
2018-12-25T17:59:08.185Z,103048.00
2018-12-25T18:01:39.461Z,103045.47
2018-12-25T18:04:14.408Z,103049.52
2018-12-25T18:06:48.888Z,103049.12
2018-12-25T18:09:22.842Z,103050.95
2018-12-25T18:11:55.061Z,103057.48
2018-12-25T18:14:26.261Z,103057.48
2018-12-25T18:16:58.373Z,103057.06
2018-12-25T18:19:42.771Z,103062.30
2018-12-25T18:22:15.976Z,103056.32
2018-12-25T18:24:47.226Z,103054.67
2018-12-25T18:27:19.195Z,103050.41
2018-12-25T18:29:51.757Z,103053.81
2018-12-25T18:32:32.507Z,103049.53
2018-12-25T18:35:03.463Z,103052.94
2018-12-25T18:37:36.481Z,103047.36
2018-12-25T18:40:09.242Z,103049.17
2018-12-25T18:42:40.790Z,103050.20
2018-12-25T18:45:11.643Z,103047.77
2018-12-25T18:47:44.938Z,103044.69
2018-12-25T18:50:17.331Z,103045.52
2018-12-25T18:52:51.264Z,103041.04
2018-12-25T18:55:21.656Z,103043.69
2018-12-25T18:57:51.960Z,103043.59
2018-12-25T19:00:24.846Z,103041.20
2018-12-25T19:02:55.554Z,103037.25
2018-12-25T19:05:26.233Z,103037.14
2018-12-25T19:07:59.699Z,103033.68
2018-12-25T19:10:30.872Z,103038.97
2018-12-25T19:13:01.294Z,103033.45
2018-12-25T19:15:35.798Z,103036.09
2018-12-25T19:18:08.878Z,103024.74
2018-12-25T19:20:41.263Z,103023.15
2018-12-25T19:23:12.499Z,103024.86
2018-12-25T19:25:45.535Z,103032.13
2018-12-25T19:28:18.009Z,103028.08
2018-12-25T19:30:50.353Z,103033.51
2018-12-25T19:33:22.320Z,103032.48
2018-12-25T19:35:57.859Z,103028.98
2018-12-25T19:38:37.731Z,103035.59
2018-12-25T19:41:10.251Z,103038.20
2018-12-25T19:43:44.969Z,103024.70
2018-12-25T19:46:20.982Z,103027.11
2018-12-25T19:48:52.191Z,103034.16
2018-12-25T19:51:26.869Z,103036.45
2018-12-25T19:54:04.979Z,103028.64
2018-12-25T19:56:52.220Z,103028.98
2018-12-25T19:59:22.953Z,103012.02
2018-12-25T20:01:58.022Z,103015.31
2018-12-25T20:04:40.891Z,103018.39
2018-12-25T20:07:54.245Z,103013.92
2018-12-25T20:11:08.697Z,103011.42
2018-12-25T20:14:33.216Z,103014.98
2018-12-25T20:17:50.088Z,103010.73
2018-12-25T20:21:14.090Z,103007.30
2018-12-25T20:24:01.722Z,103005.09
2018-12-25T20:27:29.711Z,103007.73
2018-12-25T20:30:47.806Z,103000.16
2018-12-25T20:33:41.832Z,103020.12
2018-12-25T20:36:49.357Z,102998.97
2018-12-25T20:40:08.398Z,103009.27
2018-12-25T20:43:09.430Z,103011.33
2018-12-25T20:46:12.339Z,103013.23
2018-12-25T20:49:42.164Z,103007.05
2018-12-25T20:52:59.262Z,103007.91
2018-12-25T20:56:17.635Z,103011.72
2018-12-25T20:59:37.907Z,103007.41
2018-12-25T21:02:43.902Z,103012.53
2018-12-25T21:05:55.719Z,102866.56
2018-12-25T21:09:09.873Z,103003.36
2018-12-25T21:12:26.127Z,103013.98
2018-12-25T21:15:37.494Z,103004.86
2018-12-25T21:19:02.169Z,103010.27
2018-12-25T21:22:08.607Z,103001.92
2018-12-25T21:25:17.782Z,103004.56
2018-12-25T21:27:46.628Z,102999.58
2018-12-25T21:30:18.758Z,103002.87
2018-12-25T21:32:49.456Z,102994.68
2018-12-25T21:35:26.615Z,102995.53
2018-12-25T21:38:00.467Z,103001.24
2018-12-25T21:40:32.502Z,103001.71
2018-12-25T21:43:04.111Z,103001.71
2018-12-25T21:45:37.458Z,103000.69
2018-12-25T21:48:09.299Z,102999.71
2018-12-25T21:50:40.714Z,103000.13
2018-12-25T21:53:26.453Z,102994.09
2018-12-25T21:56:00.633Z,102996.27
2018-12-25T21:58:35.438Z,102994.51
2018-12-25T22:01:07.319Z,102986.24
2018-12-25T22:03:39.043Z,102986.84
2018-12-25T22:06:10.511Z,102983.39
2018-12-25T22:08:45.517Z,102982.19
2018-12-25T22:11:17.726Z,102981.73
2018-12-25T22:13:51.576Z,102983.48
2018-12-25T22:16:24.121Z,102982.55
2018-12-25T22:18:58.308Z,102971.86
2018-12-25T22:21:30.408Z,102975.57
2018-12-25T22:24:04.060Z,102979.87
2018-12-25T22:26:42.208Z,102991.66
2018-12-25T22:29:14.190Z,102979.25
2018-12-25T22:31:44.509Z,102980.71
2018-12-25T22:34:15.524Z,102981.09
2018-12-25T22:36:46.764Z,102973.08
2018-12-25T22:39:18.999Z,102966.56
2018-12-25T22:41:50.793Z,102972.17
2018-12-25T22:44:22.925Z,102966.48
2018-12-25T22:46:54.214Z,102964.92
2018-12-25T22:49:26.512Z,102960.02
2018-12-25T22:52:00.820Z,102957.19
2018-12-25T22:54:33.498Z,102955.31
2018-12-25T22:57:05.235Z,102956.44
2018-12-25T22:59:37.756Z,102957.19
2018-12-25T23:02:09.805Z,102944.89
2018-12-25T23:04:43.655Z,102944.48
2018-12-25T23:07:16.184Z,102944.98
2018-12-25T23:09:50.251Z,102946.72
2018-12-25T23:12:21.106Z,102943.42
2018-12-25T23:14:52.252Z,102939.07
2018-12-25T23:17:22.580Z,102929.84
2018-12-25T23:19:55.895Z,102948.81
2018-12-25T23:22:41.311Z,102947.56
2018-12-25T23:25:14.881Z,102942.50
2018-12-25T23:27:50.620Z,102949.54
2018-12-25T23:30:21.037Z,102951.60
2018-12-25T23:32:52.246Z,102952.17
2018-12-25T23:35:23.594Z,102947.37
2018-12-25T23:37:55.879Z,102951.53
2018-12-25T23:40:30.355Z,102945.34
2018-12-25T23:43:08.262Z,102932.86
2018-12-25T23:45:41.732Z,102938.91
2018-12-25T23:48:14.635Z,102941.45
2018-12-25T23:50:50.267Z,102939.80
2018-12-25T23:53:22.418Z,102940.19
2018-12-25T23:55:57.215Z,102942.52
2018-12-25T23:58:27.880Z,102939.32
